Time;durP1;ratioP1;P1;durP2;ratioP2;P2;SDS_P1;SDS_P2;PMS_P1;PMS_P2;Temp;Humidity;BMP_temperature;BMP_pressure;BME280_temperature;BME280_humidity;BME280_pressure;Samples;Min_cycle;Max_cycle;Signal;HPM_P1;HPM_P2
2021/10/22 00:01:06;;;;;;;4.70;1.70;;;;;;;;;;5032616;28;20036;-46
2021/10/22 00:03:32;;;;;;;6.03;2.63;;;;;;;;;;5013645;28;20025;-44
2021/10/22 00:05:58;;;;;;;6.13;1.63;;;;;;;;;;5042587;28;20048;-44
2021/10/22 00:08:25;;;;;;;4.25;1.42;;;;;;;;;;5051049;28;20483;-43
2021/10/22 00:10:51;;;;;;;6.75;2.10;;;;;;;;;;5051321;28;20033;-43
2021/10/22 00:13:16;;;;;;;5.47;1.92;;;;;;;;;;5049628;28;20553;-42
2021/10/22 00:15:42;;;;;;;4.80;1.67;;;;;;;;;;5042568;28;20034;-41
2021/10/22 00:18:07;;;;;;;3.73;1.80;;;;;;;;;;5030293;28;20072;-46
2021/10/22 00:20:33;;;;;;;5.27;1.70;;;;;;;;;;5031240;28;20037;-42
2021/10/22 00:22:58;;;;;;;5.10;1.73;;;;;;;;;;5014414;28;20029;-42
2021/10/22 00:25:23;;;;;;;5.23;1.80;;;;;;;;;;5013545;28;20037;-41
2021/10/22 00:27:50;;;;;;;6.83;1.97;;;;;;;;;;5031034;28;20033;-42
2021/10/22 00:30:16;;;;;;;4.60;1.85;;;;;;;;;;5032325;28;20096;-42
2021/10/22 00:32:41;;;;;;;5.43;2.03;;;;;;;;;;5047306;28;20033;-42
2021/10/22 00:35:07;;;;;;;5.97;2.13;;;;;;;;;;5051113;28;20135;-41
2021/10/22 00:37:32;;;;;;;5.67;1.67;;;;;;;;;;5050728;28;20156;-44
2021/10/22 00:39:58;;;;;;;3.40;1.70;;;;;;;;;;5050912;28;20021;-41
2021/10/22 00:42:24;;;;;;;4.13;1.70;;;;;;;;;;5036932;28;20034;-42
2021/10/22 00:44:52;;;;;;;4.23;1.70;;;;;;;;;;5031143;28;20060;-42
2021/10/22 00:47:18;;;;;;;5.43;1.85;;;;;;;;;;5030866;28;20061;-42
2021/10/22 00:49:45;;;;;;;5.63;1.90;;;;;;;;;;5030833;28;20506;-42
2021/10/22 00:52:11;;;;;;;2.63;1.50;;;;;;;;;;5042421;28;20029;-42
2021/10/22 00:54:36;;;;;;;5.28;1.80;;;;;;;;;;5050859;28;20100;-42
2021/10/22 00:57:02;;;;;;;6.70;2.17;;;;;;;;;;5050889;28;20112;-43
2021/10/22 00:59:28;;;;;;;4.30;1.67;;;;;;;;;;5034766;28;20034;-42
2021/10/22 01:01:53;;;;;;;6.47;2.03;;;;;;;;;;5032054;28;20025;-43
2021/10/22 01:04:19;;;;;;;5.40;1.83;;;;;;;;;;5030823;28;20440;-44
2021/10/22 01:06:44;;;;;;;3.70;1.80;;;;;;;;;;5030864;28;20032;-42
2021/10/22 01:09:10;;;;;;;3.80;1.57;;;;;;;;;;5042884;28;20396;-41
2021/10/22 01:11:39;;;;;;;6.20;1.83;;;;;;;;;;5050755;28;20047;-42
2021/10/22 01:14:05;;;;;;;4.00;1.60;;;;;;;;;;5048938;28;20036;-42
2021/10/22 01:16:31;;;;;;;7.03;2.03;;;;;;;;;;5050797;28;20029;-42
2021/10/22 01:18:57;;;;;;;5.50;1.80;;;;;;;;;;5040037;28;20798;-42
2021/10/22 01:21:22;;;;;;;4.60;1.63;;;;;;;;;;5030726;28;20403;-42
2021/10/22 01:23:51;;;;;;;5.33;1.80;;;;;;;;;;5032257;28;20071;-44
2021/10/22 01:26:18;;;;;;;5.65;1.73;;;;;;;;;;5030749;28;20037;-41
2021/10/22 01:28:44;;;;;;;6.03;1.85;;;;;;;;;;5039165;28;20033;-41
2021/10/22 01:31:10;;;;;;;5.97;1.60;;;;;;;;;;5054988;28;20036;-42
2021/10/22 01:33:39;;;;;;;3.03;1.50;;;;;;;;;;5052304;28;20033;-45
2021/10/22 01:36:04;;;;;;;3.92;1.50;;;;;;;;;;5054009;28;20545;-44
2021/10/22 01:38:30;;;;;;;5.40;1.80;;;;;;;;;;5047461;28;20037;-42
2021/10/22 01:40:56;;;;;;;5.00;1.87;;;;;;;;;;5034620;28;20045;-42
2021/10/22 01:43:22;;;;;;;4.43;1.70;;;;;;;;;;5038427;28;20036;-45
2021/10/22 01:45:47;;;;;;;7.22;1.95;;;;;;;;;;5035918;28;20029;-43
2021/10/22 01:48:16;;;;;;;4.17;1.50;;;;;;;;;;5053400;28;20386;-43
2021/10/22 01:50:42;;;;;;;5.57;2.00;;;;;;;;;;5044993;28;20388;-43
2021/10/22 01:53:14;;;;;;;5.45;1.98;;;;;;;;;;5033765;28;20085;-42
2021/10/22 01:55:41;;;;;;;5.18;1.88;;;;;;;;;;5034835;28;20029;-44
2021/10/22 01:58:07;;;;;;;4.45;1.92;;;;;;;;;;5033560;28;20112;-44
2021/10/22 02:00:36;;;;;;;4.40;1.58;;;;;;;;;;5015865;28;20034;-44
2021/10/22 02:03:03;;;;;;;2.65;1.42;;;;;;;;;;5015803;28;20037;-44
2021/10/22 02:05:28;;;;;;;;;;;;;;;;;;5044490;28;20472;-44
2021/10/22 02:07:54;;;;;;;7.77;2.00;;;;;;;;;;5038767;28;19917;-43
2021/10/22 02:10:22;;;;;;;3.27;1.50;;;;;;;;;;5015111;28;20033;-44
2021/10/22 02:12:48;;;;;;;8.32;2.05;;;;;;;;;;5033474;28;20021;-43
2021/10/22 02:15:13;;;;;;;5.27;1.80;;;;;;;;;;5038903;28;20060;-44
2021/10/22 02:17:38;;;;;;;4.13;1.50;;;;;;;;;;5039877;28;20040;-42
2021/10/22 02:20:04;;;;;;;4.00;1.50;;;;;;;;;;5039335;28;20112;-43
2021/10/22 02:22:30;;;;;;;4.43;1.80;;;;;;;;;;5035974;28;20035;-42
2021/10/22 02:24:55;;;;;;;3.67;2.03;;;;;;;;;;5051370;28;20021;-42
2021/10/22 02:27:21;;;;;;;5.73;1.63;;;;;;;;;;5052940;28;20404;-42
2021/10/22 02:29:52;;;;;;;3.27;1.87;;;;;;;;;;5052952;28;20098;-44
2021/10/22 02:32:21;;;;;;;3.88;1.50;;;;;;;;;;5034952;28;20467;-43
2021/10/22 02:34:49;;;;;;;3.67;1.50;;;;;;;;;;5051238;28;20037;-43
2021/10/22 02:37:15;;;;;;;7.53;2.10;;;;;;;;;;5051198;28;20037;-44
2021/10/22 02:39:40;;;;;;;6.13;1.90;;;;;;;;;;5034608;28;20025;-42
2021/10/22 02:42:06;;;;;;;4.90;1.60;;;;;;;;;;5052052;28;20656;-42
2021/10/22 02:44:32;;;;;;;5.60;1.90;;;;;;;;;;5052764;28;20029;-41
2021/10/22 02:46:58;;;;;;;5.13;1.97;;;;;;;;;;5051073;28;20017;-43
2021/10/22 02:49:24;;;;;;;4.73;1.50;;;;;;;;;;5052434;28;20041;-43
2021/10/22 02:51:49;;;;;;;3.47;1.80;;;;;;;;;;5034533;28;20028;-42
2021/10/22 02:54:15;;;;;;;4.33;1.80;;;;;;;;;;5051505;28;20091;-42
2021/10/22 02:56:40;;;;;;;2.93;1.60;;;;;;;;;;5050253;28;20060;-44
2021/10/22 02:59:06;;;;;;;4.33;1.80;;;;;;;;;;5052266;28;20065;-45
2021/10/22 03:01:32;;;;;;;5.67;1.70;;;;;;;;;;5040451;28;20037;-42
2021/10/22 03:03:57;;;;;;;5.97;1.90;;;;;;;;;;5032468;28;20088;-43
2021/10/22 03:06:25;;;;;;;5.27;1.43;;;;;;;;;;5032410;28;20136;-43
2021/10/22 03:08:50;;;;;;;3.95;1.88;;;;;;;;;;5033454;28;20029;-42
2021/10/22 03:11:16;;;;;;;3.67;1.40;;;;;;;;;;5032293;28;20444;-42
2021/10/22 03:13:44;;;;;;;4.37;1.77;;;;;;;;;;5032275;28;20021;-43
2021/10/22 03:16:10;;;;;;;5.05;2.10;;;;;;;;;;5014360;28;20431;-42
2021/10/22 03:18:38;;;;;;;3.73;1.50;;;;;;;;;;5047831;28;20025;-42
2021/10/22 03:21:04;;;;;;;4.53;1.80;;;;;;;;;;5051979;28;20119;-42
2021/10/22 03:23:32;;;;;;;4.90;1.90;;;;;;;;;;5052141;28;20052;-42
2021/10/22 03:25:58;;;;;;;4.43;2.13;;;;;;;;;;5034021;28;20475;-42
2021/10/22 03:28:23;;;;;;;2.37;1.60;;;;;;;;;;5050378;28;20032;-42
2021/10/22 03:30:49;;;;;;;4.50;1.80;;;;;;;;;;5032384;28;20060;-42
2021/10/22 03:33:14;;;;;;;4.87;1.70;;;;;;;;;;5032246;28;20033;-44
2021/10/22 03:35:55;;;;;;;4.00;1.70;;;;;;;;;;5037895;28;20028;-43
2021/10/22 03:38:21;;;;;;;3.97;1.90;;;;;;;;;;5051414;28;20053;-42
2021/10/22 03:40:46;;;;;;;6.57;1.87;;;;;;;;;;5051723;28;20115;-42
2021/10/22 03:43:15;;;;;;;3.03;1.73;;;;;;;;;;5051775;28;20129;-43
2021/10/22 03:45:40;;;;;;;6.35;2.03;;;;;;;;;;5050523;28;20487;-42
2021/10/22 03:48:09;;;;;;;3.60;1.57;;;;;;;;;;5052212;28;20040;-42
2021/10/22 03:50:34;;;;;;;6.63;1.92;;;;;;;;;;5053120;28;20111;-43
2021/10/22 03:53:00;;;;;;;3.23;1.40;;;;;;;;;;5052279;28;20361;-42
2021/10/22 03:55:25;;;;;;;3.43;1.53;;;;;;;;;;5049776;28;20033;-43
2021/10/22 03:57:51;;;;;;;6.80;1.80;;;;;;;;;;5051360;28;20021;-45
2021/10/22 04:00:17;;;;;;;4.27;2.23;;;;;;;;;;5052615;28;20056;-41
2021/10/22 04:02:42;;;;;;;4.00;1.90;;;;;;;;;;5035190;28;20057;-41
2021/10/22 04:05:08;;;;;;;4.63;1.57;;;;;;;;;;5050206;28;20036;-41
2021/10/22 04:07:35;;;;;;;4.55;1.95;;;;;;;;;;5051282;28;20051;-42
2021/10/22 04:10:00;;;;;;;4.30;1.80;;;;;;;;;;5051154;28;20029;-43
2021/10/22 04:12:26;;;;;;;3.87;1.60;;;;;;;;;;5051166;28;20033;-42
2021/10/22 04:14:51;;;;;;;3.77;2.03;;;;;;;;;;5049792;28;20021;-43
2021/10/22 04:17:17;;;;;;;3.17;1.73;;;;;;;;;;5051174;28;20021;-42
2021/10/22 04:19:44;;;;;;;3.57;1.70;;;;;;;;;;5051120;28;20104;-44
2021/10/22 04:22:10;;;;;;;5.22;2.00;;;;;;;;;;5051051;28;20475;-42
2021/10/22 04:24:35;;;;;;;4.85;1.92;;;;;;;;;;5049492;28;20037;-44
2021/10/22 04:27:04;;;;;;;3.63;1.80;;;;;;;;;;5051021;28;20111;-43
2021/10/22 04:29:29;;;;;;;4.93;1.75;;;;;;;;;;5051094;28;20032;-44
2021/10/22 04:31:54;;;;;;;3.57;1.60;;;;;;;;;;5028562;28;20025;-42
2021/10/22 04:34:20;;;;;;;5.10;1.77;;;;;;;;;;5032219;28;20037;-45
2021/10/22 04:36:47;;;;;;;7.33;1.70;;;;;;;;;;5030999;28;20546;-42
2021/10/22 04:41:57;;;;;;;4.97;1.77;;;;;;;;;;5031098;28;20493;-42
2021/10/22 04:44:25;;;;;;;3.30;1.63;;;;;;;;;;5031127;28;20504;-42
2021/10/22 04:46:51;;;;;;;5.60;1.85;;;;;;;;;;5033085;28;20482;-44
2021/10/22 04:49:16;;;;;;;4.13;1.63;;;;;;;;;;5030701;28;20733;-45
2021/10/22 04:51:41;;;;;;;4.87;2.00;;;;;;;;;;5030945;28;20021;-43
2021/10/22 04:54:07;;;;;;;2.77;1.67;;;;;;;;;;5029904;28;20113;-41
2021/10/22 04:56:32;;;;;;;5.30;1.90;;;;;;;;;;5049150;28;20040;-42
2021/10/22 04:58:57;;;;;;;5.73;1.70;;;;;;;;;;5050662;28;20017;-43
2021/10/22 05:01:23;;;;;;;3.40;1.87;;;;;;;;;;5050697;28;20025;-46
2021/10/22 05:03:49;;;;;;;3.27;1.53;;;;;;;;;;5050767;28;20021;-45
2021/10/22 05:06:14;;;;;;;5.00;1.87;;;;;;;;;;5052942;28;20029;-46
2021/10/22 05:08:39;;;;;;;4.80;1.67;;;;;;;;;;5054311;28;20024;-42
2021/10/22 05:11:05;;;;;;;4.57;1.63;;;;;;;;;;5054566;28;20025;-43
2021/10/22 05:13:30;;;;;;;6.33;2.00;;;;;;;;;;5054448;28;20052;-41
2021/10/22 05:15:56;;;;;;;2.93;2.00;;;;;;;;;;5044550;28;20037;-41
2021/10/22 05:18:21;;;;;;;5.83;2.30;;;;;;;;;;5043299;28;20029;-43
2021/10/22 05:20:46;;;;;;;4.27;1.87;;;;;;;;;;5038965;28;20029;-44
2021/10/22 05:23:12;;;;;;;3.97;1.80;;;;;;;;;;5034231;28;20029;-41
2021/10/22 05:25:37;;;;;;;2.83;1.67;;;;;;;;;;5034341;28;20025;-43
2021/10/22 05:28:03;;;;;;;4.93;1.50;;;;;;;;;;5035297;28;20029;-44
2021/10/22 05:30:28;;;;;;;2.03;1.73;;;;;;;;;;5034370;28;20452;-45
2021/10/22 05:32:54;;;;;;;3.80;1.80;;;;;;;;;;5016300;28;20025;-43
2021/10/22 05:35:19;;;;;;;5.87;1.80;;;;;;;;;;5035226;28;20029;-43
2021/10/22 05:37:45;;;;;;;3.87;1.80;;;;;;;;;;5034036;28;20033;-46
2021/10/22 05:40:10;;;;;;;2.80;1.60;;;;;;;;;;5035204;28;20113;-43
2021/10/22 05:42:35;;;;;;;5.37;1.83;;;;;;;;;;5034086;28;20018;-41
2021/10/22 05:45:01;;;;;;;4.23;1.70;;;;;;;;;;5035168;28;20480;-46
2021/10/22 05:47:26;;;;;;;5.33;1.43;;;;;;;;;;5033721;28;20037;-42
2021/10/22 05:49:52;;;;;;;3.23;2.00;;;;;;;;;;5048157;28;20041;-41
2021/10/22 05:52:17;;;;;;;2.40;1.57;;;;;;;;;;5054345;28;20029;-41
2021/10/22 05:54:44;;;;;;;4.43;1.87;;;;;;;;;;5053857;28;20017;-41
2021/10/22 05:57:09;;;;;;;4.85;2.00;;;;;;;;;;5051969;28;20031;-41
2021/10/22 05:59:34;;;;;;;4.00;1.93;;;;;;;;;;5053377;28;20115;-43
2021/10/22 06:02:00;;;;;;;4.20;1.60;;;;;;;;;;5044492;28;20020;-42
2021/10/22 06:04:25;;;;;;;3.60;1.47;;;;;;;;;;5042171;28;20021;-41
2021/10/22 06:06:50;;;;;;;3.43;2.20;;;;;;;;;;5053611;28;20422;-41
2021/10/22 06:09:16;;;;;;;3.53;1.80;;;;;;;;;;5041217;28;20415;-43
2021/10/22 06:11:41;;;;;;;3.73;1.70;;;;;;;;;;5033616;28;20476;-43
2021/10/22 06:14:07;;;;;;;3.43;1.60;;;;;;;;;;5033379;28;20031;-41
2021/10/22 06:16:32;;;;;;;3.60;1.80;;;;;;;;;;5032252;28;20560;-41
2021/10/22 06:19:04;;;;;;;4.47;1.87;;;;;;;;;;5041056;28;20032;-41
2021/10/22 06:22:35;;;;;;;2.80;1.67;;;;;;;;;;5040663;28;20025;-43
2021/10/22 06:24:25;;;;;;;4.20;1.93;;;;;;;;;;5020060;28;20029;-41
2021/10/22 06:26:50;;;;;;;4.40;1.93;;;;;;;;;;5015978;28;20609;-43
2021/10/22 06:29:16;;;;;;;5.53;1.80;;;;;;;;;;5035256;28;20117;-42
2021/10/22 06:31:41;;;;;;;3.63;1.87;;;;;;;;;;5033063;28;20460;-41
2021/10/22 06:34:08;;;;;;;4.67;1.97;;;;;;;;;;5033276;28;20033;-41
2021/10/22 06:36:33;;;;;;;4.95;2.05;;;;;;;;;;5033105;28;20104;-41
2021/10/22 06:38:59;;;;;;;3.57;1.70;;;;;;;;;;5038160;28;20116;-42
2021/10/22 06:41:24;;;;;;;3.60;1.80;;;;;;;;;;5043575;28;20477;-43
2021/10/22 06:43:49;;;;;;;5.00;1.97;;;;;;;;;;5035005;28;20025;-40
2021/10/22 06:46:16;;;;;;;4.80;1.97;;;;;;;;;;5033594;28;20115;-42
2021/10/22 06:48:42;;;;;;;7.70;2.13;;;;;;;;;;5047941;28;20053;-42
2021/10/22 06:51:08;;;;;;;6.43;1.70;;;;;;;;;;5043155;28;20051;-42
2021/10/22 06:53:34;;;;;;;5.90;1.95;;;;;;;;;;5042785;28;20017;-42
2021/10/22 06:56:00;;;;;;;7.03;1.93;;;;;;;;;;5050584;28;20021;-41
2021/10/22 06:58:26;;;;;;;4.40;2.00;;;;;;;;;;5041810;28;20091;-40
2021/10/22 07:00:51;;;;;;;11.80;2.70;;;;;;;;;;5045464;28;20504;-41
2021/10/22 07:03:20;;;;;;;8.07;2.10;;;;;;;;;;5032576;28;20560;-42
2021/10/22 07:08:11;;;;;;;8.93;2.30;;;;;;;;;;5032049;28;20035;-41
2021/10/22 07:10:37;;;;;;;8.07;2.23;;;;;;;;;;5033347;28;20025;-39
2021/10/22 07:13:03;;;;;;;7.07;2.03;;;;;;;;;;5032257;28;20029;-40
2021/10/22 07:15:30;;;;;;;8.27;2.13;;;;;;;;;;5035902;28;20017;-40
2021/10/22 07:17:56;;;;;;;7.35;2.47;;;;;;;;;;5040841;28;20078;-41
2021/10/22 07:20:23;;;;;;;6.55;2.33;;;;;;;;;;5049717;28;20034;-43
2021/10/22 07:22:52;;;;;;;7.32;2.20;;;;;;;;;;5051412;28;20044;-41
2021/10/22 07:25:18;;;;;;;5.45;2.55;;;;;;;;;;5033133;28;20021;-41
2021/10/22 07:27:43;;;;;;;5.90;2.40;;;;;;;;;;5049110;28;20264;-41
2021/10/22 07:30:09;;;;;;;6.53;2.33;;;;;;;;;;5031056;28;20059;-42
2021/10/22 07:32:35;;;;;;;5.80;2.37;;;;;;;;;;5050162;28;20029;-42
2021/10/22 07:35:00;;;;;;;5.40;2.53;;;;;;;;;;5051014;28;20021;-41
2021/10/22 07:37:25;;;;;;;8.07;2.17;;;;;;;;;;5042615;28;20033;-41
2021/10/22 07:39:51;;;;;;;8.50;2.27;;;;;;;;;;5039854;28;20151;-42
2021/10/22 07:42:16;;;;;;;6.53;2.47;;;;;;;;;;5041399;28;20080;-41
2021/10/22 07:44:42;;;;;;;6.80;2.27;;;;;;;;;;5039117;28;20481;-41
2021/10/22 07:47:07;;;;;;;8.27;2.47;;;;;;;;;;5037808;28;20029;-42
2021/10/22 07:49:32;;;;;;;8.20;3.07;;;;;;;;;;5041308;28;20048;-41
2021/10/22 07:51:59;;;;;;;8.73;2.50;;;;;;;;;;5024510;28;20025;-41
2021/10/22 07:54:24;;;;;;;13.57;3.15;;;;;;;;;;5040545;28;20031;-41
2021/10/22 07:56:50;;;;;;;11.10;3.50;;;;;;;;;;5040687;28;20108;-42
2021/10/22 07:59:15;;;;;;;11.73;3.20;;;;;;;;;;5021566;28;20029;-43
2021/10/22 08:01:42;;;;;;;9.87;3.00;;;;;;;;;;5039903;28;20398;-41
2021/10/22 08:04:08;;;;;;;12.82;3.13;;;;;;;;;;5041098;28;20026;-44
2021/10/22 08:06:37;;;;;;;16.43;3.03;;;;;;;;;;5021696;28;20024;-42
2021/10/22 08:09:02;;;;;;;7.45;3.03;;;;;;;;;;5047334;28;20013;-42
2021/10/22 08:11:28;;;;;;;20.37;3.83;;;;;;;;;;5066625;28;20024;-41
2021/10/22 08:13:53;;;;;;;12.07;3.40;;;;;;;;;;5053505;28;20024;-42
2021/10/22 08:16:18;;;;;;;12.57;3.30;;;;;;;;;;5071535;28;20024;-41
2021/10/22 08:18:44;;;;;;;13.33;3.73;;;;;;;;;;5071469;28;20021;-42
2021/10/22 08:21:21;;;;;;;14.93;3.57;;;;;;;;;;5071577;28;20024;-42
2021/10/22 08:23:47;;;;;;;14.45;3.80;;;;;;;;;;5071036;28;20027;-43
2021/10/22 08:26:13;;;;;;;19.57;3.87;;;;;;;;;;5069997;28;20036;-41
2021/10/22 08:28:38;;;;;;;15.80;3.45;;;;;;;;;;5070597;28;20073;-42
2021/10/22 08:31:06;;;;;;;18.03;4.03;;;;;;;;;;5070424;28;20415;-41
2021/10/22 08:33:31;;;;;;;10.25;3.58;;;;;;;;;;5070907;28;20020;-44
2021/10/22 08:35:57;;;;;;;9.87;3.10;;;;;;;;;;5070857;28;20036;-41
2021/10/22 08:38:24;;;;;;;13.77;3.83;;;;;;;;;;5070820;28;20208;-42
2021/10/22 08:40:52;;;;;;;16.20;3.90;;;;;;;;;;5053361;28;20036;-43
2021/10/22 08:43:17;;;;;;;13.85;3.72;;;;;;;;;;5050045;28;20033;-43
2021/10/22 08:45:43;;;;;;;9.07;3.40;;;;;;;;;;5055185;28;20108;-42
2021/10/22 08:48:09;;;;;;;15.30;3.40;;;;;;;;;;5055229;28;20040;-41
2021/10/22 08:50:35;;;;;;;9.90;3.33;;;;;;;;;;5042087;28;20151;-42
2021/10/22 08:53:01;;;;;;;10.63;3.13;;;;;;;;;;5031504;28;20140;-41
2021/10/22 08:55:26;;;;;;;13.80;3.30;;;;;;;;;;5054508;28;20033;-42
2021/10/22 08:57:52;;;;;;;12.80;3.80;;;;;;;;;;5054552;28;20099;-41
2021/10/22 09:00:18;;;;;;;12.17;3.57;;;;;;;;;;5048385;28;20028;-42
2021/10/22 09:02:48;;;;;;;;;;;;;;;;;;5047367;28;20113;-44
2021/10/22 09:05:18;;;;;;;10.90;2.85;;;;;;;;;;5034760;28;19942;-41
2021/10/22 09:07:48;;;;;;;7.75;2.67;;;;;;;;;;5052629;28;20224;-43
2021/10/22 09:10:29;;;;;;;8.48;3.13;;;;;;;;;;5048571;28;20025;-43
2021/10/22 09:13:03;;;;;;;6.88;3.03;;;;;;;;;;5049577;28;20021;-42
2021/10/22 09:15:36;;;;;;;8.38;3.45;;;;;;;;;;5054331;28;20100;-42
2021/10/22 09:18:07;;;;;;;9.52;3.05;;;;;;;;;;5054228;28;20455;-41
2021/10/22 09:20:33;;;;;;;12.50;3.03;;;;;;;;;;5046924;28;20033;-41
2021/10/22 09:23:00;;;;;;;6.63;2.73;;;;;;;;;;5050620;28;20483;-41
2021/10/22 09:25:29;;;;;;;8.18;2.65;;;;;;;;;;5054138;28;20257;-44
2021/10/22 09:27:59;;;;;;;7.47;2.70;;;;;;;;;;5053943;28;20024;-41
2021/10/22 09:30:26;;;;;;;8.48;2.63;;;;;;;;;;5047227;28;20104;-41
2021/10/22 09:32:52;;;;;;;4.97;2.85;;;;;;;;;;5032835;28;20395;-43
2021/10/22 09:35:32;;;;;;;7.93;3.00;;;;;;;;;;5054039;28;20035;-44
2021/10/22 09:38:05;;;;;;;10.32;2.60;;;;;;;;;;5053721;28;20111;-42
2021/10/22 09:40:31;;;;;;;10.15;3.10;;;;;;;;;;5046423;28;20380;-42
2021/10/22 09:42:56;;;;;;;6.37;2.40;;;;;;;;;;5050407;28;20518;-42
2021/10/22 09:45:28;;;;;;;7.30;2.60;;;;;;;;;;5053864;28;20124;-43
2021/10/22 09:47:53;;;;;;;7.05;2.60;;;;;;;;;;5053529;28;20516;-42
2021/10/22 09:50:25;;;;;;;8.70;2.73;;;;;;;;;;5048648;28;20116;-42
2021/10/22 09:52:50;;;;;;;9.35;2.92;;;;;;;;;;5049289;28;20028;-44
2021/10/22 09:55:17;;;;;;;7.13;2.80;;;;;;;;;;5052662;28;20032;-41
2021/10/22 09:58:02;;;;;;;6.03;2.47;;;;;;;;;;5052027;28;20025;-41
2021/10/22 10:00:33;;;;;;;6.85;2.70;;;;;;;;;;5050263;28;20051;-41
2021/10/22 10:02:58;;;;;;;5.32;2.50;;;;;;;;;;5045284;28;20021;-43
2021/10/22 10:05:24;;;;;;;8.97;2.90;;;;;;;;;;5053662;28;20032;-45
2021/10/22 10:07:50;;;;;;;7.15;2.55;;;;;;;;;;5053321;28;20025;-42
2021/10/22 10:10:15;;;;;;;6.30;2.77;;;;;;;;;;5048643;28;20340;-43
2021/10/22 10:12:41;;;;;;;7.83;3.10;;;;;;;;;;5041631;28;20025;-42
2021/10/22 10:15:09;;;;;;;8.13;3.10;;;;;;;;;;5053478;28;20036;-42
2021/10/22 10:17:45;;;;;;;8.07;2.65;;;;;;;;;;5053191;28;20037;-42
2021/10/22 10:20:11;;;;;;;6.93;2.63;;;;;;;;;;5045777;28;20033;-43
2021/10/22 10:22:42;;;;;;;6.30;2.47;;;;;;;;;;5042386;28;20028;-42
2021/10/22 10:25:08;;;;;;;6.10;2.33;;;;;;;;;;5051066;28;20033;-42
2021/10/22 10:27:46;;;;;;;5.23;2.17;;;;;;;;;;5051050;28;20027;-42
2021/10/22 10:30:14;;;;;;;4.95;1.92;;;;;;;;;;5046739;28;20324;-41
2021/10/22 10:32:40;;;;;;;6.13;2.30;;;;;;;;;;5029545;28;20524;-40
2021/10/22 10:35:13;;;;;;;7.03;2.55;;;;;;;;;;5031109;28;20029;-42
2021/10/22 10:37:39;;;;;;;5.82;2.65;;;;;;;;;;5039911;28;20086;-42
2021/10/22 10:40:06;;;;;;;3.88;2.22;;;;;;;;;;5041836;28;20029;-40
2021/10/22 10:42:34;;;;;;;5.65;2.47;;;;;;;;;;5046006;28;20029;-42
2021/10/22 10:45:15;;;;;;;6.30;2.80;;;;;;;;;;5038706;28;20064;-41
2021/10/22 10:47:42;;;;;;;4.90;2.25;;;;;;;;;;5040527;28;20021;-41
2021/10/22 10:50:08;;;;;;;6.40;2.45;;;;;;;;;;5042436;28;20107;-41
2021/10/22 10:52:41;;;;;;;8.23;2.77;;;;;;;;;;5034741;28;20022;-43
2021/10/22 10:55:16;;;;;;;6.95;2.38;;;;;;;;;;5034204;28;20104;-43
2021/10/22 10:57:46;;;;;;;3.92;2.08;;;;;;;;;;5032318;28;20025;-42
2021/10/22 11:00:16;;;;;;;5.90;2.58;;;;;;;;;;5036298;28;20037;-44
2021/10/22 11:03:07;;;;;;;6.38;2.67;;;;;;;;;;5041211;28;20025;-43
2021/10/22 11:08:15;;;;;;;7.03;2.10;;;;;;;;;;5030783;28;20127;-40
2021/10/22 11:11:00;;;;;;;8.13;1.98;;;;;;;;;;5029152;28;20466;-43
2021/10/22 11:13:44;;;;;;;5.05;2.15;;;;;;;;;;5039121;28;20025;-43
2021/10/22 11:16:18;;;;;;;4.13;2.00;;;;;;;;;;5002735;28;20091;-42
2021/10/22 11:18:43;;;;;;;3.30;1.70;;;;;;;;;;5031039;28;20075;-42
2021/10/22 11:21:11;;;;;;;7.03;2.00;;;;;;;;;;5037558;28;20072;-42
2021/10/22 11:23:37;;;;;;;7.47;1.65;;;;;;;;;;5047771;28;20036;-41
2021/10/22 11:26:03;;;;;;;6.27;2.30;;;;;;;;;;5034806;28;20021;-44
2021/10/22 11:28:32;;;;;;;6.30;1.80;;;;;;;;;;5031778;28;20021;-43
2021/10/22 11:30:57;;;;;;;5.97;2.03;;;;;;;;;;5012381;28;20406;-42
2021/10/22 11:33:26;;;;;;;7.60;2.17;;;;;;;;;;5045733;28;20033;-42
2021/10/22 11:35:51;;;;;;;5.05;1.70;;;;;;;;;;5050002;28;20021;-42
2021/10/22 11:38:23;;;;;;;4.27;1.67;;;;;;;;;;5049937;28;20055;-41
2021/10/22 11:40:48;;;;;;;5.00;1.95;;;;;;;;;;5037060;28;20024;-44
2021/10/22 11:43:14;;;;;;;3.30;1.57;;;;;;;;;;5043733;28;20033;-42
2021/10/22 11:45:41;;;;;;;5.80;2.40;;;;;;;;;;5048003;28;20024;-43
2021/10/22 11:48:06;;;;;;;6.10;1.70;;;;;;;;;;5047893;28;20103;-41
2021/10/22 11:50:34;;;;;;;4.43;1.97;;;;;;;;;;5042655;28;20127;-42
2021/10/22 11:53:10;;;;;;;3.75;1.75;;;;;;;;;;5041171;28;20032;-41
2021/10/22 11:55:36;;;;;;;5.30;1.88;;;;;;;;;;5051788;28;20410;-42
2021/10/22 11:58:08;;;;;;;3.03;1.50;;;;;;;;;;5035204;28;20117;-43
2021/10/22 12:00:34;;;;;;;5.10;2.80;;;;;;;;;;5028512;28;20523;-42
2021/10/22 12:03:00;;;;;;;2.13;1.70;;;;;;;;;;5048637;28;20029;-41
2021/10/22 12:05:29;;;;;;;6.40;1.83;;;;;;;;;;5033692;28;20484;-43
2021/10/22 12:07:56;;;;;;;4.30;2.03;;;;;;;;;;5019536;28;20137;-44
2021/10/22 12:10:22;;;;;;;;;;;;;;;;;;5032945;28;20020;-42
2021/10/22 12:12:48;;;;;;;6.77;1.77;;;;;;;;;;5045351;28;20297;-42
2021/10/22 12:15:27;;;;;;;5.63;1.70;;;;;;;;;;5051156;28;20456;-41
2021/10/22 12:17:59;;;;;;;6.50;1.38;;;;;;;;;;5044490;28;20036;-43
2021/10/22 12:20:25;;;;;;;5.53;1.70;;;;;;;;;;5045130;28;20033;-42
2021/10/22 12:22:57;;;;;;;4.90;1.50;;;;;;;;;;5042541;28;20083;-42
2021/10/22 12:25:23;;;;;;;4.50;1.75;;;;;;;;;;5048701;28;20029;-41
2021/10/22 12:27:49;;;;;;;5.00;1.60;;;;;;;;;;5044107;28;20033;-43
2021/10/22 12:30:15;;;;;;;4.22;1.45;;;;;;;;;;5032025;28;20021;-41
2021/10/22 12:32:49;;;;;;;3.33;1.75;;;;;;;;;;5042440;28;20132;-43
2021/10/22 12:35:20;;;;;;;3.75;1.40;;;;;;;;;;5050098;28;20447;-42
2021/10/22 12:38:09;;;;;;;3.95;1.65;;;;;;;;;;5050687;28;20024;-42
2021/10/22 12:40:35;;;;;;;4.50;1.70;;;;;;;;;;5041499;28;20079;-42
2021/10/22 12:43:01;;;;;;;;;;;;;;;;;;5041325;28;20075;-42
2021/10/22 12:45:26;;;;;;;3.23;1.33;;;;;;;;;;5048557;28;19995;-40
2021/10/22 12:47:52;;;;;;;3.73;1.70;;;;;;;;;;5047227;28;20053;-41
2021/10/22 12:50:27;;;;;;;4.73;1.50;;;;;;;;;;5027665;28;20049;-42
2021/10/22 12:52:59;;;;;;;4.22;1.92;;;;;;;;;;5037638;28;20606;-41
2021/10/22 12:55:26;;;;;;;3.35;1.70;;;;;;;;;;5048967;28;20355;-41
2021/10/22 12:57:52;;;;;;;2.38;1.42;;;;;;;;;;5051254;28;20412;-41
2021/10/22 13:00:24;;;;;;;4.10;1.70;;;;;;;;;;5041793;28;20513;-44
2021/10/22 13:02:50;;;;;;;5.53;2.00;;;;;;;;;;5030285;28;20471;-42
2021/10/22 13:05:20;;;;;;;4.57;1.50;;;;;;;;;;5048232;28;20426;-42
2021/10/22 13:08:20;;;;;;;4.47;1.50;;;;;;;;;;5050537;28;20032;-41
2021/10/22 13:21:28;;;;;;;8.73;2.50;;;;;;;;;;5032165;28;20521;-44
2021/10/22 13:23:55;;;;;;;8.33;2.23;;;;;;;;;;5040224;28;20100;-44
2021/10/22 13:26:20;;;;;;;3.72;1.98;;;;;;;;;;5037072;28;20297;-46
2021/10/22 13:28:48;;;;;;;8.60;2.40;;;;;;;;;;5053047;28;20052;-45
2021/10/22 13:31:13;;;;;;;7.78;2.00;;;;;;;;;;5039446;28;20025;-43
2021/10/22 13:33:39;;;;;;;8.40;2.43;;;;;;;;;;5049467;28;20398;-46
2021/10/22 13:36:06;;;;;;;7.80;2.73;;;;;;;;;;5053613;28;20025;-44
2021/10/22 13:38:31;;;;;;;8.52;2.35;;;;;;;;;;5037253;28;20119;-47
2021/10/22 13:40:58;;;;;;;5.63;2.00;;;;;;;;;;5047900;28;20064;-47
2021/10/22 13:43:24;;;;;;;4.45;1.85;;;;;;;;;;5053646;28;20500;-48
2021/10/22 13:45:49;;;;;;;4.57;1.27;;;;;;;;;;5033864;28;20120;-47
2021/10/22 13:48:14;;;;;;;5.17;1.07;;;;;;;;;;5033760;28;20021;-46
2021/10/22 13:50:40;;;;;;;7.67;1.50;;;;;;;;;;5032908;28;20052;-48
2021/10/22 13:53:05;;;;;;;8.53;1.67;;;;;;;;;;5044747;28;20023;-47
2021/10/22 13:55:32;;;;;;;4.37;1.20;;;;;;;;;;5033533;28;20076;-48
2021/10/22 13:57:58;;;;;;;2.30;0.85;;;;;;;;;;5047542;28;20513;-47
2021/10/22 14:00:23;;;;;;;4.40;1.30;;;;;;;;;;5045613;28;20116;-48
2021/10/22 14:02:49;;;;;;;3.80;1.93;;;;;;;;;;5023605;28;20021;-48
2021/10/22 14:05:15;;;;;;;5.53;1.50;;;;;;;;;;5060970;28;20483;-50
2021/10/22 14:07:40;;;;;;;5.63;2.22;;;;;;;;;;5038148;28;20507;-46
2021/10/22 14:10:06;;;;;;;3.57;1.10;;;;;;;;;;5037118;28;20021;-47
2021/10/22 14:12:44;;;;;;;1.73;1.07;;;;;;;;;;5012809;28;20565;-50
2021/10/22 14:15:16;;;;;;;4.78;1.33;;;;;;;;;;5053389;28;20121;-46
2021/10/22 14:30:55;;;;;;;4.35;1.65;;;;;;;;;;5032903;28;20080;-46
2021/10/22 14:33:20;;;;;;;10.93;2.07;;;;;;;;;;5049603;28;20029;-43
2021/10/22 14:35:45;;;;;;;8.83;2.07;;;;;;;;;;5036120;28;20060;-47
2021/10/22 14:38:11;;;;;;;8.20;1.83;;;;;;;;;;5046304;28;20032;-51
2021/10/22 14:40:37;;;;;;;4.28;1.95;;;;;;;;;;5051147;28;20052;-46
2021/10/22 14:43:05;;;;;;;6.00;1.90;;;;;;;;;;5049460;28;20415;-46
2021/10/22 14:46:00;;;;;;;4.03;1.40;;;;;;;;;;5033501;28;20047;-49
2021/10/22 14:48:25;;;;;;;3.78;1.52;;;;;;;;;;5044953;28;20067;-49
2021/10/22 14:50:51;;;;;;;4.10;1.30;;;;;;;;;;5052144;28;20025;-49
2021/10/22 14:55:48;;;;;;;8.57;2.37;;;;;;;;;;5038031;28;20025;-47
2021/10/22 14:58:14;;;;;;;7.30;1.73;;;;;;;;;;5052154;28;20024;-47
2021/10/22 15:00:40;;;;;;;8.52;2.05;;;;;;;;;;5047690;28;20479;-46
2021/10/22 15:03:07;;;;;;;4.38;1.40;;;;;;;;;;5034132;28;20489;-48
2021/10/22 15:05:33;;;;;;;;;;;;;;;;;;5033962;28;20021;-49
2021/10/22 15:07:58;;;;;;;5.23;1.30;;;;;;;;;;5050078;28;20370;-48
2021/10/22 15:10:24;;;;;;;3.13;1.03;;;;;;;;;;5048685;28;20243;-49
2021/10/22 15:12:49;;;;;;;4.43;1.13;;;;;;;;;;5030377;28;20553;-49
2021/10/22 15:15:15;;;;;;;3.53;1.03;;;;;;;;;;5049764;28;20028;-49
2021/10/22 15:17:41;;;;;;;5.68;1.65;;;;;;;;;;5046838;28;20108;-50